sensor_id;sensor_type;location;lat;lon;timestamp;temperature;humidity
63325;SHT31;49451;52.390;13.028;2023-03-12T05:00:51;0.64;81.33
63325;SHT31;49451;52.390;13.028;2023-03-12T05:03:16;0.57;81.29
63325;SHT31;49451;52.390;13.028;2023-03-12T05:05:42;0.57;81.52
63325;SHT31;49451;52.390;13.028;2023-03-12T05:08:07;0.54;81.54
63325;SHT31;49451;52.390;13.028;2023-03-12T05:10:33;0.51;81.51
63325;SHT31;49451;52.390;13.028;2023-03-12T05:12:58;0.50;81.82
63325;SHT31;49451;52.390;13.028;2023-03-12T05:15:24;0.34;82.14
63325;SHT31;49451;52.390;13.028;2023-03-12T05:17:50;0.40;81.76
63325;SHT31;49451;52.390;13.028;2023-03-12T05:20:16;0.38;82.04
63325;SHT31;49451;52.390;13.028;2023-03-12T05:22:44;0.24;81.97
63325;SHT31;49451;52.390;13.028;2023-03-12T05:25:10;0.31;82.20
63325;SHT31;49451;52.390;13.028;2023-03-12T05:27:36;0.28;82.20
63325;SHT31;49451;52.390;13.028;2023-03-12T05:30:03;0.37;81.89
63325;SHT31;49451;52.390;13.028;2023-03-12T05:32:29;0.28;82.16
63325;SHT31;49451;52.390;13.028;2023-03-12T05:34:55;0.26;82.25
63325;SHT31;49451;52.390;13.028;2023-03-12T05:37:20;0.24;82.09
63325;SHT31;49451;52.390;13.028;2023-03-12T05:39:45;0.23;82.31
63325;SHT31;49451;52.390;13.028;2023-03-12T05:42:14;0.24;82.19
63325;SHT31;49451;52.390;13.028;2023-03-12T05:44:41;0.20;82.36
63325;SHT31;49451;52.390;13.028;2023-03-12T05:47:06;0.31;82.14
63325;SHT31;49451;52.390;13.028;2023-03-12T05:49:32;0.26;82.35
63325;SHT31;49451;52.390;13.028;2023-03-12T05:51:57;0.30;82.23
63325;SHT31;49451;52.390;13.028;2023-03-12T05:54:23;0.24;82.50
63325;SHT31;49451;52.390;13.028;2023-03-12T05:56:48;0.28;82.27
63325;SHT31;49451;52.390;13.028;2023-03-12T05:59:14;0.31;82.18
63325;SHT31;49451;52.390;13.028;2023-03-12T06:01:40;0.33;82.27
63325;SHT31;49451;52.390;13.028;2023-03-12T06:04:05;0.47;81.99
63325;SHT31;49451;52.390;13.028;2023-03-12T06:06:32;0.57;81.94
63325;SHT31;49451;52.390;13.028;2023-03-12T06:08:58;0.58;81.58
63325;SHT31;49451;52.390;13.028;2023-03-12T06:11:23;0.65;81.25
63325;SHT31;49451;52.390;13.028;2023-03-12T06:13:49;0.75;81.22
63325;SHT31;49451;52.390;13.028;2023-03-12T06:18:39;0.88;80.58
63325;SHT31;49451;52.390;13.028;2023-03-12T06:21:15;1.02;80.39
63325;SHT31;49451;52.390;13.028;2023-03-12T06:23:41;1.13;79.61
63325;SHT31;49451;52.390;13.028;2023-03-12T06:26:08;1.10;79.34
63325;SHT31;49451;52.390;13.028;2023-03-12T06:28:34;1.12;79.23
63325;SHT31;49451;52.390;13.028;2023-03-12T06:31:00;1.24;79.16
63325;SHT31;49451;52.390;13.028;2023-03-12T06:33:26;1.27;78.91
63325;SHT31;49451;52.390;13.028;2023-03-12T06:35:59;1.31;78.87
63325;SHT31;49451;52.390;13.028;2023-03-12T06:38:25;1.55;78.42
63325;SHT31;49451;52.390;13.028;2023-03-12T06:40:54;1.38;78.61
63325;SHT31;49451;52.390;13.028;2023-03-12T06:43:20;1.61;78.14
63325;SHT31;49451;52.390;13.028;2023-03-12T06:45:45;1.37;77.99
63325;SHT31;49451;52.390;13.028;2023-03-12T06:48:11;1.82;77.35
63325;SHT31;49451;52.390;13.028;2023-03-12T06:50:36;1.87;76.75
63325;SHT31;49451;52.390;13.028;2023-03-12T06:53:44;2.31;75.82
63325;SHT31;49451;52.390;13.028;2023-03-12T06:56:10;2.54;74.24
63325;SHT31;49451;52.390;13.028;2023-03-12T06:58:35;2.61;74.38
63325;SHT31;49451;52.390;13.028;2023-03-12T07:01:01;3.06;73.39
63325;SHT31;49451;52.390;13.028;2023-03-12T07:03:26;3.24;72.43
63325;SHT31;49451;52.390;13.028;2023-03-12T07:05:55;2.84;71.54
63325;SHT31;49451;52.390;13.028;2023-03-12T07:08:20;3.31;72.33
63325;SHT31;49451;52.390;13.028;2023-03-12T07:10:47;3.44;71.37
63325;SHT31;49451;52.390;13.028;2023-03-12T07:13:12;3.75;71.94
63325;SHT31;49451;52.390;13.028;2023-03-12T07:15:38;3.74;69.99
63325;SHT31;49451;52.390;13.028;2023-03-12T07:18:05;4.03;69.71
63325;SHT31;49451;52.390;13.028;2023-03-12T07:20:34;4.00;69.17
63325;SHT31;49451;52.390;13.028;2023-03-12T07:23:00;4.54;68.85
63325;SHT31;49451;52.390;13.028;2023-03-12T07:25:26;4.86;67.12
63325;SHT31;49451;52.390;13.028;2023-03-12T07:27:51;4.86;66.53
63325;SHT31;49451;52.390;13.028;2023-03-12T07:30:17;4.93;68.17
63325;SHT31;49451;52.390;13.028;2023-03-12T07:32:42;4.81;66.97
63325;SHT31;49451;52.390;13.028;2023-03-12T07:35:08;4.92;66.47
63325;SHT31;49451;52.390;13.028;2023-03-12T07:37:34;4.56;67.65
63325;SHT31;49451;52.390;13.028;2023-03-12T07:39:59;3.85;67.32
63325;SHT31;49451;52.390;13.028;2023-03-12T07:42:25;4.03;69.05
63325;SHT31;49451;52.390;13.028;2023-03-12T07:44:50;4.44;69.09
63325;SHT31;49451;52.390;13.028;2023-03-12T07:47:15;4.68;67.43
63325;SHT31;49451;52.390;13.028;2023-03-12T07:49:41;4.54;67.54
63325;SHT31;49451;52.390;13.028;2023-03-12T07:52:09;5.47;66.44
63325;SHT31;49451;52.390;13.028;2023-03-12T07:54:37;5.82;63.57
63325;SHT31;49451;52.390;13.028;2023-03-12T07:57:09;6.65;63.57
63325;SHT31;49451;52.390;13.028;2023-03-12T07:59:34;6.73;62.82
63325;SHT31;49451;52.390;13.028;2023-03-12T08:02:00;6.43;63.61
63325;SHT31;49451;52.390;13.028;2023-03-12T08:04:25;6.23;62.79
63325;SHT31;49451;52.390;13.028;2023-03-12T08:06:51;6.46;62.73
63325;SHT31;49451;52.390;13.028;2023-03-12T08:09:16;7.39;61.84
63325;SHT31;49451;52.390;13.028;2023-03-12T08:11:42;7.09;62.15
63325;SHT31;49451;52.390;13.028;2023-03-12T08:14:07;7.01;61.53
63325;SHT31;49451;52.390;13.028;2023-03-12T08:16:32;7.98;60.28
63325;SHT31;49451;52.390;13.028;2023-03-12T08:18:58;7.85;57.02
63325;SHT31;49451;52.390;13.028;2023-03-12T08:21:23;6.68;62.08
63325;SHT31;49451;52.390;13.028;2023-03-12T08:23:48;6.87;62.18
63325;SHT31;49451;52.390;13.028;2023-03-12T08:26:14;7.91;59.43
63325;SHT31;49451;52.390;13.028;2023-03-12T08:28:39;7.88;58.32
63325;SHT31;49451;52.390;13.028;2023-03-12T08:31:05;8.82;58.90
63325;SHT31;49451;52.390;13.028;2023-03-12T08:33:37;8.53;58.50
63325;SHT31;49451;52.390;13.028;2023-03-12T08:40:11;8.93;56.99
63325;SHT31;49451;52.390;13.028;2023-03-12T08:46:40;10.02;54.09
63325;SHT31;49451;52.390;13.028;2023-03-12T08:49:08;10.35;52.89
63325;SHT31;49451;52.390;13.028;2023-03-12T08:51:42;10.70;53.04
63325;SHT31;49451;52.390;13.028;2023-03-12T08:54:10;9.48;53.45
63325;SHT31;49451;52.390;13.028;2023-03-12T08:56:44;6.80;60.70
63325;SHT31;49451;52.390;13.028;2023-03-12T08:59:32;5.70;63.12
63325;SHT31;49451;52.390;13.028;2023-03-12T09:01:58;5.57;65.37
63325;SHT31;49451;52.390;13.028;2023-03-12T09:04:23;5.16;66.12
63325;SHT31;49451;52.390;13.028;2023-03-12T09:06:49;6.50;61.53
63325;SHT31;49451;52.390;13.028;2023-03-12T09:09:14;5.60;64.26
63325;SHT31;49451;52.390;13.028;2023-03-12T09:11:40;5.87;63.59
63325;SHT31;49451;52.390;13.028;2023-03-12T09:14:06;5.77;64.06
63325;SHT31;49451;52.390;13.028;2023-03-12T09:16:32;5.96;64.31
63325;SHT31;49451;52.390;13.028;2023-03-12T09:18:59;5.62;64.02
63325;SHT31;49451;52.390;13.028;2023-03-12T09:21:25;6.27;64.05
63325;SHT31;49451;52.390;13.028;2023-03-12T09:23:50;8.29;59.26
63325;SHT31;49451;52.390;13.028;2023-03-12T09:26:16;7.73;61.72
63325;SHT31;49451;52.390;13.028;2023-03-12T09:28:41;7.51;61.03
63325;SHT31;49451;52.390;13.028;2023-03-12T09:31:08;6.93;60.64
63325;SHT31;49451;52.390;13.028;2023-03-12T09:33:34;6.95;61.07
63325;SHT31;49451;52.390;13.028;2023-03-12T09:36:00;6.10;63.58
63325;SHT31;49451;52.390;13.028;2023-03-12T09:38:27;7.78;61.07
63325;SHT31;49451;52.390;13.028;2023-03-12T09:40:52;6.23;63.60
63325;SHT31;49451;52.390;13.028;2023-03-12T09:43:42;8.21;60.88
63325;SHT31;49451;52.390;13.028;2023-03-12T09:46:18;8.16;59.71
63325;SHT31;49451;52.390;13.028;2023-03-12T09:48:47;9.70;55.29
63325;SHT31;49451;52.390;13.028;2023-03-12T09:51:17;11.36;52.37
63325;SHT31;49451;52.390;13.028;2023-03-12T09:53:48;11.18;49.78
63325;SHT31;49451;52.390;13.028;2023-03-12T09:56:17;12.02;50.65
63325;SHT31;49451;52.390;13.028;2023-03-12T09:58:43;12.39;49.52
63325;SHT31;49451;52.390;13.028;2023-03-12T10:01:33;8.34;57.58
63325;SHT31;49451;52.390;13.028;2023-03-12T10:06:46;8.02;58.72
63325;SHT31;49451;52.390;13.028;2023-03-12T10:12:17;7.11;60.98
63325;SHT31;49451;52.390;13.028;2023-03-12T10:15:16;7.34;59.91
63325;SHT31;49451;52.390;13.028;2023-03-12T10:26:24;7.48;58.72
63325;SHT31;49451;52.390;13.028;2023-03-12T10:29:01;8.54;55.35
63325;SHT31;49451;52.390;13.028;2023-03-12T10:31:57;8.50;56.67
63325;SHT31;49451;52.390;13.028;2023-03-12T10:39:40;11.01;50.11
63325;SHT31;49451;52.390;13.028;2023-03-12T10:42:17;9.99;49.92
63325;SHT31;49451;52.390;13.028;2023-03-12T10:44:46;9.78;50.53
63325;SHT31;49451;52.390;13.028;2023-03-12T10:47:20;8.63;53.83
63325;SHT31;49451;52.390;13.028;2023-03-12T10:49:49;9.67;51.56
63325;SHT31;49451;52.390;13.028;2023-03-12T10:52:19;8.72;52.35
63325;SHT31;49451;52.390;13.028;2023-03-12T10:54:50;8.51;54.16
63325;SHT31;49451;52.390;13.028;2023-03-12T10:57:17;10.23;53.09
63325;SHT31;49451;52.390;13.028;2023-03-12T10:59:44;9.25;52.57
63325;SHT31;49451;52.390;13.028;2023-03-12T11:02:35;12.15;46.69
63325;SHT31;49451;52.390;13.028;2023-03-12T11:05:19;8.84;51.52
63325;SHT31;49451;52.390;13.028;2023-03-12T11:07:45;7.51;54.84
63325;SHT31;49451;52.390;13.028;2023-03-12T11:10:14;9.12;53.77
63325;SHT31;49451;52.390;13.028;2023-03-12T11:13:00;8.03;52.33
63325;SHT31;49451;52.390;13.028;2023-03-12T11:15:27;7.01;54.62
63325;SHT31;49451;52.390;13.028;2023-03-12T11:18:22;7.84;53.82
63325;SHT31;49451;52.390;13.028;2023-03-12T11:20:52;8.88;51.28
63325;SHT31;49451;52.390;13.028;2023-03-12T11:23:24;9.33;48.48
63325;SHT31;49451;52.390;13.028;2023-03-12T11:25:55;7.64;52.35
63325;SHT31;49451;52.390;13.028;2023-03-12T11:28:24;8.01;51.39
63325;SHT31;49451;52.390;13.028;2023-03-12T11:30:52;9.44;47.66
63325;SHT31;49451;52.390;13.028;2023-03-12T11:33:18;9.51;44.30
63325;SHT31;49451;52.390;13.028;2023-03-12T11:38:25;7.53;48.81
63325;SHT31;49451;52.390;13.028;2023-03-12T11:44:06;7.70;48.62
63325;SHT31;49451;52.390;13.028;2023-03-12T11:51:35;7.15;47.11
63325;SHT31;49451;52.390;13.028;2023-03-12T11:56:55;7.73;46.64
63325;SHT31;49451;52.390;13.028;2023-03-12T11:59:42;8.03;44.76
63325;SHT31;49451;52.390;13.028;2023-03-12T12:10:30;6.89;49.56
63325;SHT31;49451;52.390;13.028;2023-03-12T12:13:28;7.54;48.08
63325;SHT31;49451;52.390;13.028;2023-03-12T12:18:45;7.11;47.42
63325;SHT31;49451;52.390;13.028;2023-03-12T12:21:34;7.70;46.42
63325;SHT31;49451;52.390;13.028;2023-03-12T12:24:36;8.51;46.29
63325;SHT31;49451;52.390;13.028;2023-03-12T12:36:16;6.70;46.04
63325;SHT31;49451;52.390;13.028;2023-03-12T12:41:24;6.74;45.91
63325;SHT31;49451;52.390;13.028;2023-03-12T12:44:11;7.34;46.96
63325;SHT31;49451;52.390;13.028;2023-03-12T12:46:41;7.12;48.50
63325;SHT31;49451;52.390;13.028;2023-03-12T12:49:13;7.15;49.58
63325;SHT31;49451;52.390;13.028;2023-03-12T12:51:45;7.06;49.89
63325;SHT31;49451;52.390;13.028;2023-03-12T12:56:50;6.47;52.44
63325;SHT31;49451;52.390;13.028;2023-03-12T12:59:29;6.48;53.31
63325;SHT31;49451;52.390;13.028;2023-03-12T13:01:59;6.09;51.89
63325;SHT31;49451;52.390;13.028;2023-03-12T13:06:58;6.02;52.02
63325;SHT31;49451;52.390;13.028;2023-03-12T13:09:42;5.89;52.77
63325;SHT31;49451;52.390;13.028;2023-03-12T13:14:42;5.91;53.63
63325;SHT31;49451;52.390;13.028;2023-03-12T13:20:16;6.03;52.17
63325;SHT31;49451;52.390;13.028;2023-03-12T13:30:58;5.81;52.97
63325;SHT31;49451;52.390;13.028;2023-03-12T13:36:11;5.34;53.31
63325;SHT31;49451;52.390;13.028;2023-03-12T13:41:38;5.57;54.94
63325;SHT31;49451;52.390;13.028;2023-03-12T13:44:30;5.48;54.51
63325;SHT31;49451;52.390;13.028;2023-03-12T13:50:05;5.46;55.25
63325;SHT31;49451;52.390;13.028;2023-03-12T13:53:05;5.87;55.80
63325;SHT31;49451;52.390;13.028;2023-03-12T13:55:34;5.74;55.95
63325;SHT31;49451;52.390;13.028;2023-03-12T13:58:16;5.62;55.44
63325;SHT31;49451;52.390;13.028;2023-03-12T14:00:56;5.44;56.41
63325;SHT31;49451;52.390;13.028;2023-03-12T14:03:34;5.51;57.04
63325;SHT31;49451;52.390;13.028;2023-03-12T14:08:50;5.27;57.87
63325;SHT31;49451;52.390;13.028;2023-03-12T14:16:51;5.00;58.52
63325;SHT31;49451;52.390;13.028;2023-03-12T14:19:32;5.03;59.15
63325;SHT31;49451;52.390;13.028;2023-03-12T14:22:01;4.97;59.46
63325;SHT31;49451;52.390;13.028;2023-03-12T14:24:32;4.78;59.56
63325;SHT31;49451;52.390;13.028;2023-03-12T14:27:00;5.16;60.04
63325;SHT31;49451;52.390;13.028;2023-03-12T14:32:45;4.91;60.70
63325;SHT31;49451;52.390;13.028;2023-03-12T14:35:19;5.08;60.26
63325;SHT31;49451;52.390;13.028;2023-03-12T14:38:03;5.05;60.66
63325;SHT31;49451;52.390;13.028;2023-03-12T14:43:01;5.18;60.64
63325;SHT31;49451;52.390;13.028;2023-03-12T14:45:27;5.43;60.66
63325;SHT31;49451;52.390;13.028;2023-03-12T14:47:55;5.13;61.39
63325;SHT31;49451;52.390;13.028;2023-03-12T14:50:27;5.24;62.22
63325;SHT31;49451;52.390;13.028;2023-03-12T14:52:54;5.20;61.84
63325;SHT31;49451;52.390;13.028;2023-03-12T14:55:24;5.18;61.85
63325;SHT31;49451;52.390;13.028;2023-03-12T14:58:15;5.23;61.40
63325;SHT31;49451;52.390;13.028;2023-03-12T15:00:42;5.46;61.04
63325;SHT31;49451;52.390;13.028;2023-03-12T15:03:13;5.24;61.21
63325;SHT31;49451;52.390;13.028;2023-03-12T15:05:46;5.03;61.59
63325;SHT31;49451;52.390;13.028;2023-03-12T15:08:12;5.02;62.54
63325;SHT31;49451;52.390;13.028;2023-03-12T15:10:39;4.91;63.73
63325;SHT31;49451;52.390;13.028;2023-03-12T15:13:04;4.78;64.25
63325;SHT31;49451;52.390;13.028;2023-03-12T15:15:38;4.78;64.14
63325;SHT31;49451;52.390;13.028;2023-03-12T15:18:13;4.76;65.15
63325;SHT31;49451;52.390;13.028;2023-03-12T15:20:40;4.84;65.04
63325;SHT31;49451;52.390;13.028;2023-03-12T15:23:08;4.96;64.66
63325;SHT31;49451;52.390;13.028;2023-03-12T15:25:34;5.11;64.21
63325;SHT31;49451;52.390;13.028;2023-03-12T15:30:27;4.99;64.54
63325;SHT31;49451;52.390;13.028;2023-03-12T15:33:21;4.79;64.61
63325;SHT31;49451;52.390;13.028;2023-03-12T15:35:59;4.84;65.15
63325;SHT31;49451;52.390;13.028;2023-03-12T15:38:26;4.96;65.30
63325;SHT31;49451;52.390;13.028;2023-03-12T15:40:53;5.06;65.74
63325;SHT31;49451;52.390;13.028;2023-03-12T15:43:22;4.84;68.08
63325;SHT31;49451;52.390;13.028;2023-03-12T15:45:57;4.86;69.23
63325;SHT31;49451;52.390;13.028;2023-03-12T15:48:34;4.79;70.13
63325;SHT31;49451;52.390;13.028;2023-03-12T15:51:00;4.69;71.74
63325;SHT31;49451;52.390;13.028;2023-03-12T15:53:31;4.51;72.49
63325;SHT31;49451;52.390;13.028;2023-03-12T15:55:59;4.24;73.87
63325;SHT31;49451;52.390;13.028;2023-03-12T15:58:34;4.24;73.75
63325;SHT31;49451;52.390;13.028;2023-03-12T16:01:41;4.40;73.74
63325;SHT31;49451;52.390;13.028;2023-03-12T16:04:10;4.33;74.25
63325;SHT31;49451;52.390;13.028;2023-03-12T16:06:35;4.23;75.45
63325;SHT31;49451;52.390;13.028;2023-03-12T16:09:02;4.09;76.38
63325;SHT31;49451;52.390;13.028;2023-03-12T16:11:33;4.36;76.47
63325;SHT31;49451;52.390;13.028;2023-03-12T16:14:27;4.17;77.72
63325;SHT31;49451;52.390;13.028;2023-03-12T16:17:01;4.07;78.41
63325;SHT31;49451;52.390;13.028;2023-03-12T16:19:28;4.03;79.17
63325;SHT31;49451;52.390;13.028;2023-03-12T16:21:55;4.21;79.00
63325;SHT31;49451;52.390;13.028;2023-03-12T16:24:21;3.92;79.65
63325;SHT31;49451;52.390;13.028;2023-03-12T16:26:54;4.02;79.69
63325;SHT31;49451;52.390;13.028;2023-03-12T16:29:21;4.09;79.76
63325;SHT31;49451;52.390;13.028;2023-03-12T16:31:54;4.10;80.05
63325;SHT31;49451;52.390;13.028;2023-03-12T16:34:20;3.86;80.41
63325;SHT31;49451;52.390;13.028;2023-03-12T16:36:45;4.07;80.59
63325;SHT31;49451;52.390;13.028;2023-03-12T16:39:12;4.30;80.09
63325;SHT31;49451;52.390;13.028;2023-03-12T16:41:38;4.10;80.87
63325;SHT31;49451;52.390;13.028;2023-03-12T16:44:05;3.96;81.50
63325;SHT31;49451;52.390;13.028;2023-03-12T16:46:31;4.24;81.53
63325;SHT31;49451;52.390;13.028;2023-03-12T16:48:57;3.86;82.40
63325;SHT31;49451;52.390;13.028;2023-03-12T16:51:22;3.92;83.09
63325;SHT31;49451;52.390;13.028;2023-03-12T16:53:48;3.99;83.07
63325;SHT31;49451;52.390;13.028;2023-03-12T16:56:19;4.14;83.02
63325;SHT31;49451;52.390;13.028;2023-03-12T16:58:46;3.78;84.17
63325;SHT31;49451;52.390;13.028;2023-03-12T17:01:16;3.64;84.73
63325;SHT31;49451;52.390;13.028;2023-03-12T17:03:44;3.55;86.10
63325;SHT31;49451;52.390;13.028;2023-03-12T17:06:24;3.65;85.89
63325;SHT31;49451;52.390;13.028;2023-03-12T17:08:51;3.57;86.51
63325;SHT31;49451;52.390;13.028;2023-03-12T17:11:22;3.60;86.12
63325;SHT31;49451;52.390;13.028;2023-03-12T17:14:00;3.53;87.55
63325;SHT31;49451;52.390;13.028;2023-03-12T17:16:26;3.54;87.57
63325;SHT31;49451;52.390;13.028;2023-03-12T17:18:52;3.45;88.47
63325;SHT31;49451;52.390;13.028;2023-03-12T17:21:18;3.34;89.27
63325;SHT31;49451;52.390;13.028;2023-03-12T17:23:46;3.28;90.16
63325;SHT31;49451;52.390;13.028;2023-03-12T17:26:12;3.45;90.06
63325;SHT31;49451;52.390;13.028;2023-03-12T17:28:37;3.53;90.42
63325;SHT31;49451;52.390;13.028;2023-03-12T17:31:03;3.36;90.92
63325;SHT31;49451;52.390;13.028;2023-03-12T17:33:28;3.45;91.20
63325;SHT31;49451;52.390;13.028;2023-03-12T17:35:57;3.43;91.45
63325;SHT31;49451;52.390;13.028;2023-03-12T17:38:23;3.37;92.14
63325;SHT31;49451;52.390;13.028;2023-03-12T17:40:49;3.41;92.39
63325;SHT31;49451;52.390;13.028;2023-03-12T17:43:14;3.33;93.27
63325;SHT31;49451;52.390;13.028;2023-03-12T17:45:39;3.37;93.15
63325;SHT31;49451;52.390;13.028;2023-03-12T17:48:06;3.43;93.03
63325;SHT31;49451;52.390;13.028;2023-03-12T17:50:31;3.34;93.89
63325;SHT31;49451;52.390;13.028;2023-03-12T17:52:57;3.40;93.72
63325;SHT31;49451;52.390;13.028;2023-03-12T17:55:22;3.44;93.35
63325;SHT31;49451;52.390;13.028;2023-03-12T17:57:48;3.38;93.47
63325;SHT31;49451;52.390;13.028;2023-03-12T18:00:14;3.45;93.88
63325;SHT31;49451;52.390;13.028;2023-03-12T18:02:41;3.64;92.74
63325;SHT31;49451;52.390;13.028;2023-03-12T18:05:09;3.36;93.81
63325;SHT31;49451;52.390;13.028;2023-03-12T18:07:35;3.36;94.60
63325;SHT31;49451;52.390;13.028;2023-03-12T18:10:01;3.30;95.03
63325;SHT31;49451;52.390;13.028;2023-03-12T18:12:26;3.40;94.91
63325;SHT31;49451;52.390;13.028;2023-03-12T18:14:52;3.30;95.34
63325;SHT31;49451;52.390;13.028;2023-03-12T18:17:17;3.37;95.32
63325;SHT31;49451;52.390;13.028;2023-03-12T18:19:43;3.50;95.19
63325;SHT31;49451;52.390;13.028;2023-03-12T18:22:08;3.38;95.56
63325;SHT31;49451;52.390;13.028;2023-03-12T18:24:36;3.31;96.29
63325;SHT31;49451;52.390;13.028;2023-03-12T18:27:01;3.30;96.82
63325;SHT31;49451;52.390;13.028;2023-03-12T18:29:26;3.23;96.94
63325;SHT31;49451;52.390;13.028;2023-03-12T18:31:52;3.27;96.93
63325;SHT31;49451;52.390;13.028;2023-03-12T18:34:17;3.22;97.30
63325;SHT31;49451;52.390;13.028;2023-03-12T18:36:44;3.24;97.40
63325;SHT31;49451;52.390;13.028;2023-03-12T18:39:10;3.20;97.87
63325;SHT31;49451;52.390;13.028;2023-03-12T18:41:35;3.24;98.04
63325;SHT31;49451;52.390;13.028;2023-03-12T18:44:01;3.23;98.34
63325;SHT31;49451;52.390;13.028;2023-03-12T18:46:26;3.24;98.22
63325;SHT31;49451;52.390;13.028;2023-03-12T18:48:52;3.41;98.09
63325;SHT31;49451;52.390;13.028;2023-03-12T18:51:18;3.37;97.78
63325;SHT31;49451;52.390;13.028;2023-03-12T18:53:43;3.36;97.95
63325;SHT31;49451;52.390;13.028;2023-03-12T18:56:12;3.40;98.17
63325;SHT31;49451;52.390;13.028;2023-03-12T18:58:37;3.43;98.07
63325;SHT31;49451;52.390;13.028;2023-03-12T19:01:03;3.45;98.46
63325;SHT31;49451;52.390;13.028;2023-03-12T19:03:28;3.57;97.94
63325;SHT31;49451;52.390;13.028;2023-03-12T19:06:05;3.57;98.00
63325;SHT31;49451;52.390;13.028;2023-03-12T19:08:30;3.47;98.30
63325;SHT31;49451;52.390;13.028;2023-03-12T19:10:56;3.64;97.92
63325;SHT31;49451;52.390;13.028;2023-03-12T19:13:22;3.65;98.01
63325;SHT31;49451;52.390;13.028;2023-03-12T19:15:47;3.62;98.11
63325;SHT31;49451;52.390;13.028;2023-03-12T19:18:12;3.86;97.61
63325;SHT31;49451;52.390;13.028;2023-03-12T19:20:38;3.89;97.38
63325;SHT31;49451;52.390;13.028;2023-03-12T19:23:03;3.92;96.93
63325;SHT31;49451;52.390;13.028;2023-03-12T19:25:29;3.92;97.53
63325;SHT31;49451;52.390;13.028;2023-03-12T19:27:54;3.78;97.39
63325;SHT31;49451;52.390;13.028;2023-03-12T19:30:20;3.82;97.95
63325;SHT31;49451;52.390;13.028;2023-03-12T19:32:46;3.88;97.93
63325;SHT31;49451;52.390;13.028;2023-03-12T19:35:12;3.89;97.65
63325;SHT31;49451;52.390;13.028;2023-03-12T19:37:38;3.91;97.97
63325;SHT31;49451;52.390;13.028;2023-03-12T19:40:04;3.93;97.98
63325;SHT31;49451;52.390;13.028;2023-03-12T19:42:30;3.86;98.35
63325;SHT31;49451;52.390;13.028;2023-03-12T19:44:55;3.98;98.16
63325;SHT31;49451;52.390;13.028;2023-03-12T19:47:21;4.02;98.26
63325;SHT31;49451;52.390;13.028;2023-03-12T19:49:46;4.05;98.40
63325;SHT31;49451;52.390;13.028;2023-03-12T19:52:14;4.10;98.01
63325;SHT31;49451;52.390;13.028;2023-03-12T19:54:40;4.20;97.95
63325;SHT31;49451;52.390;13.028;2023-03-12T19:57:06;4.30;97.75
63325;SHT31;49451;52.390;13.028;2023-03-12T19:59:31;4.37;97.42
63325;SHT31;49451;52.390;13.028;2023-03-12T20:01:57;4.43;97.25
63325;SHT31;49451;52.390;13.028;2023-03-12T20:04:24;4.60;96.96
63325;SHT31;49451;52.390;13.028;2023-03-12T20:06:50;4.51;97.32
63325;SHT31;49451;52.390;13.028;2023-03-12T20:09:15;4.72;96.54
63325;SHT31;49451;52.390;13.028;2023-03-12T20:11:40;4.68;97.07
63325;SHT31;49451;52.390;13.028;2023-03-12T20:14:06;4.67;97.09
63325;SHT31;49451;52.390;13.028;2023-03-12T20:16:31;4.69;97.36
63325;SHT31;49451;52.390;13.028;2023-03-12T20:18:56;4.85;96.84
63325;SHT31;49451;52.390;13.028;2023-03-12T20:21:22;4.88;96.76
63325;SHT31;49451;52.390;13.028;2023-03-12T20:23:47;4.99;96.41
63325;SHT31;49451;52.390;13.028;2023-03-12T20:26:13;4.96;96.64
63325;SHT31;49451;52.390;13.028;2023-03-12T20:28:39;5.03;96.34
63325;SHT31;49451;52.390;13.028;2023-03-12T20:31:15;5.02;96.64
63325;SHT31;49451;52.390;13.028;2023-03-12T20:33:41;5.02;96.72
63325;SHT31;49451;52.390;13.028;2023-03-12T20:36:08;4.99;97.12
63325;SHT31;49451;52.390;13.028;2023-03-12T20:38:34;5.11;96.88
63325;SHT31;49451;52.390;13.028;2023-03-12T20:41:03;5.09;97.12
63325;SHT31;49451;52.390;13.028;2023-03-12T20:43:29;5.18;96.61
63325;SHT31;49451;52.390;13.028;2023-03-12T20:45:54;5.16;96.98
63325;SHT31;49451;52.390;13.028;2023-03-12T20:48:20;5.23;96.84
63325;SHT31;49451;52.390;13.028;2023-03-12T20:50:48;5.24;97.06
63325;SHT31;49451;52.390;13.028;2023-03-12T20:53:13;5.29;97.15
63325;SHT31;49451;52.390;13.028;2023-03-12T20:55:39;5.26;97.30
63325;SHT31;49451;52.390;13.028;2023-03-12T20:58:04;5.33;97.06
63325;SHT31;49451;52.390;13.028;2023-03-12T21:00:30;5.37;96.87
63325;SHT31;49451;52.390;13.028;2023-03-12T21:02:55;5.44;96.68
63325;SHT31;49451;52.390;13.028;2023-03-12T21:05:21;5.41;96.59
63325;SHT31;49451;52.390;13.028;2023-03-12T21:07:46;5.43;96.96
63325;SHT31;49451;52.390;13.028;2023-03-12T21:10:11;5.50;96.82
63325;SHT31;49451;52.390;13.028;2023-03-12T21:12:38;5.54;96.62
63325;SHT31;49451;52.390;13.028;2023-03-12T21:15:08;5.58;96.46
63325;SHT31;49451;52.390;13.028;2023-03-12T21:17:35;5.48;96.91
63325;SHT31;49451;52.390;13.028;2023-03-12T21:20:03;5.61;96.49
63325;SHT31;49451;52.390;13.028;2023-03-12T21:22:30;5.55;96.35
63325;SHT31;49451;52.390;13.028;2023-03-12T21:24:56;5.64;96.13
63325;SHT31;49451;52.390;13.028;2023-03-12T21:27:22;5.61;96.43
63325;SHT31;49451;52.390;13.028;2023-03-12T21:29:47;5.64;96.28
63325;SHT31;49451;52.390;13.028;2023-03-12T21:32:13;5.64;96.27
63325;SHT31;49451;52.390;13.028;2023-03-12T21:34:38;5.64;96.22
63325;SHT31;49451;52.390;13.028;2023-03-12T21:37:03;5.65;95.93
63325;SHT31;49451;52.390;13.028;2023-03-12T21:39:29;5.60;96.35
63325;SHT31;49451;52.390;13.028;2023-03-12T21:41:54;5.70;95.96
63325;SHT31;49451;52.390;13.028;2023-03-12T21:44:20;5.68;95.97
63325;SHT31;49451;52.390;13.028;2023-03-12T21:46:45;5.64;96.17
63325;SHT31;49451;52.390;13.028;2023-03-12T21:49:11;5.74;95.55
63325;SHT31;49451;52.390;13.028;2023-03-12T21:51:38;5.72;95.69
63325;SHT31;49451;52.390;13.028;2023-03-12T21:54:03;5.65;96.03
63325;SHT31;49451;52.390;13.028;2023-03-12T21:56:30;5.70;95.83
63325;SHT31;49451;52.390;13.028;2023-03-12T21:58:56;5.74;95.76
63325;SHT31;49451;52.390;13.028;2023-03-12T22:01:22;5.70;95.71
63325;SHT31;49451;52.390;13.028;2023-03-12T22:03:48;5.81;95.59
63325;SHT31;49451;52.390;13.028;2023-03-12T22:06:14;5.85;95.22
63325;SHT31;49451;52.390;13.028;2023-03-12T22:08:41;5.87;95.17
63325;SHT31;49451;52.390;13.028;2023-03-12T22:11:07;5.85;95.22
63325;SHT31;49451;52.390;13.028;2023-03-12T22:13:33;5.92;95.13
63325;SHT31;49451;52.390;13.028;2023-03-12T22:16:00;5.87;95.53
63325;SHT31;49451;52.390;13.028;2023-03-12T22:18:27;5.95;95.26
63325;SHT31;49451;52.390;13.028;2023-03-12T22:20:57;5.95;95.10
63325;SHT31;49451;52.390;13.028;2023-03-12T22:23:25;5.99;94.87
63325;SHT31;49451;52.390;13.028;2023-03-12T22:25:51;6.06;94.68
63325;SHT31;49451;52.390;13.028;2023-03-12T22:28:17;6.03;94.70
63325;SHT31;49451;52.390;13.028;2023-03-12T22:30:42;6.01;95.24